sensor_id;sensor_type;location;lat;lon;timestamp;P1;durP1;ratioP1;P2;durP2;ratioP2
22160;SDS011;49035;48.812;11.762;2024-02-21T00:01:44;11.33;;;5.23;;
22160;SDS011;49035;48.812;11.762;2024-02-21T00:04:09;8.55;;;4.13;;
22160;SDS011;49035;48.812;11.762;2024-02-21T00:06:35;11.60;;;4.20;;
22160;SDS011;49035;48.812;11.762;2024-02-21T00:09:01;10.70;;;4.27;;
22160;SDS011;49035;48.812;11.762;2024-02-21T00:11:26;7.90;;;4.27;;
22160;SDS011;49035;48.812;11.762;2024-02-21T00:13:53;12.87;;;4.30;;
22160;SDS011;49035;48.812;11.762;2024-02-21T00:16:18;8.63;;;3.87;;
22160;SDS011;49035;48.812;11.762;2024-02-21T00:18:44;10.20;;;4.13;;
22160;SDS011;49035;48.812;11.762;2024-02-21T00:21:09;7.93;;;4.30;;
22160;SDS011;49035;48.812;11.762;2024-02-21T00:23:40;12.87;;;4.67;;
22160;SDS011;49035;48.812;11.762;2024-02-21T00:26:05;15.30;;;4.33;;
22160;SDS011;49035;48.812;11.762;2024-02-21T00:28:31;15.00;;;4.80;;
22160;SDS011;49035;48.812;11.762;2024-02-21T00:30:56;9.80;;;4.43;;
22160;SDS011;49035;48.812;11.762;2024-02-21T00:33:22;7.27;;;4.33;;
22160;SDS011;49035;48.812;11.762;2024-02-21T00:35:47;11.17;;;5.10;;
22160;SDS011;49035;48.812;11.762;2024-02-21T00:38:13;8.97;;;4.57;;
22160;SDS011;49035;48.812;11.762;2024-02-21T00:40:39;11.03;;;5.03;;
22160;SDS011;49035;48.812;11.762;2024-02-21T00:43:04;10.73;;;4.47;;
22160;SDS011;49035;48.812;11.762;2024-02-21T00:45:30;12.87;;;4.70;;
22160;SDS011;49035;48.812;11.762;2024-02-21T00:47:55;8.07;;;4.53;;
22160;SDS011;49035;48.812;11.762;2024-02-21T00:50:21;18.63;;;5.17;;
22160;SDS011;49035;48.812;11.762;2024-02-21T00:52:46;13.53;;;4.67;;
22160;SDS011;49035;48.812;11.762;2024-02-21T00:55:13;13.87;;;4.77;;
22160;SDS011;49035;48.812;11.762;2024-02-21T00:57:39;9.27;;;4.67;;
22160;SDS011;49035;48.812;11.762;2024-02-21T01:00:05;7.78;;;4.95;;
22160;SDS011;49035;48.812;11.762;2024-02-21T01:02:30;12.30;;;5.70;;
22160;SDS011;49035;48.812;11.762;2024-02-21T01:04:57;9.57;;;4.80;;
22160;SDS011;49035;48.812;11.762;2024-02-21T01:07:22;12.07;;;5.17;;
22160;SDS011;49035;48.812;11.762;2024-02-21T01:09:48;12.37;;;4.77;;
22160;SDS011;49035;48.812;11.762;2024-02-21T01:12:16;12.20;;;5.20;;
22160;SDS011;49035;48.812;11.762;2024-02-21T01:14:41;17.67;;;5.50;;
22160;SDS011;49035;48.812;11.762;2024-02-21T01:17:07;12.63;;;5.13;;
22160;SDS011;49035;48.812;11.762;2024-02-21T01:19:32;11.47;;;5.57;;
22160;SDS011;49035;48.812;11.762;2024-02-21T01:21:58;12.17;;;4.67;;
22160;SDS011;49035;48.812;11.762;2024-02-21T01:24:24;10.83;;;5.13;;
22160;SDS011;49035;48.812;11.762;2024-02-21T01:26:49;8.43;;;5.03;;
22160;SDS011;49035;48.812;11.762;2024-02-21T01:29:15;9.33;;;5.03;;
22160;SDS011;49035;48.812;11.762;2024-02-21T01:31:40;10.70;;;4.47;;
22160;SDS011;49035;48.812;11.762;2024-02-21T01:34:06;11.43;;;4.90;;
22160;SDS011;49035;48.812;11.762;2024-02-21T01:36:31;13.27;;;5.20;;
22160;SDS011;49035;48.812;11.762;2024-02-21T01:38:57;12.03;;;4.70;;
22160;SDS011;49035;48.812;11.762;2024-02-21T01:41:23;11.00;;;4.47;;
22160;SDS011;49035;48.812;11.762;2024-02-21T01:43:49;9.70;;;4.60;;
22160;SDS011;49035;48.812;11.762;2024-02-21T01:46:15;10.07;;;4.50;;
22160;SDS011;49035;48.812;11.762;2024-02-21T01:48:40;9.77;;;4.53;;
22160;SDS011;49035;48.812;11.762;2024-02-21T01:51:06;12.60;;;4.97;;
22160;SDS011;49035;48.812;11.762;2024-02-21T01:53:34;13.90;;;5.20;;
22160;SDS011;49035;48.812;11.762;2024-02-21T01:56:02;10.27;;;4.53;;
22160;SDS011;49035;48.812;11.762;2024-02-21T01:58:30;7.23;;;4.17;;
22160;SDS011;49035;48.812;11.762;2024-02-21T02:00:58;10.73;;;4.10;;
22160;SDS011;49035;48.812;11.762;2024-02-21T02:03:24;7.97;;;4.43;;
22160;SDS011;49035;48.812;11.762;2024-02-21T02:05:50;13.20;;;4.23;;
22160;SDS011;49035;48.812;11.762;2024-02-21T02:08:19;8.33;;;4.40;;
22160;SDS011;49035;48.812;11.762;2024-02-21T02:10:47;9.93;;;4.77;;
22160;SDS011;49035;48.812;11.762;2024-02-21T02:13:13;15.17;;;5.23;;
22160;SDS011;49035;48.812;11.762;2024-02-21T02:15:39;12.80;;;4.70;;
22160;SDS011;49035;48.812;11.762;2024-02-21T02:18:08;9.67;;;4.67;;
22160;SDS011;49035;48.812;11.762;2024-02-21T02:20:34;12.13;;;4.57;;
22160;SDS011;49035;48.812;11.762;2024-02-21T02:23:02;10.13;;;4.20;;
22160;SDS011;49035;48.812;11.762;2024-02-21T02:25:36;13.47;;;4.27;;
22160;SDS011;49035;48.812;11.762;2024-02-21T02:28:03;8.97;;;4.03;;
22160;SDS011;49035;48.812;11.762;2024-02-21T02:30:33;7.10;;;4.27;;
22160;SDS011;49035;48.812;11.762;2024-02-21T02:32:59;11.77;;;4.50;;
22160;SDS011;49035;48.812;11.762;2024-02-21T02:35:25;13.00;;;4.73;;
22160;SDS011;49035;48.812;11.762;2024-02-21T02:37:51;8.37;;;3.50;;
22160;SDS011;49035;48.812;11.762;2024-02-21T02:40:17;10.10;;;4.03;;
22160;SDS011;49035;48.812;11.762;2024-02-21T02:42:43;10.40;;;4.43;;
22160;SDS011;49035;48.812;11.762;2024-02-21T02:45:09;8.40;;;3.93;;
22160;SDS011;49035;48.812;11.762;2024-02-21T02:47:35;16.10;;;5.93;;
22160;SDS011;49035;48.812;11.762;2024-02-21T02:50:00;33.40;;;12.73;;
22160;SDS011;49035;48.812;11.762;2024-02-21T02:52:26;36.67;;;11.70;;
22160;SDS011;49035;48.812;11.762;2024-02-21T02:54:52;21.20;;;8.43;;
22160;SDS011;49035;48.812;11.762;2024-02-21T02:57:20;21.07;;;7.63;;
22160;SDS011;49035;48.812;11.762;2024-02-21T02:59:50;19.70;;;6.97;;
22160;SDS011;49035;48.812;11.762;2024-02-21T03:02:16;24.43;;;8.00;;
22160;SDS011;49035;48.812;11.762;2024-02-21T03:04:42;24.00;;;9.53;;
22160;SDS011;49035;48.812;11.762;2024-02-21T03:07:08;19.27;;;6.63;;
22160;SDS011;49035;48.812;11.762;2024-02-21T03:09:36;23.80;;;8.37;;
22160;SDS011;49035;48.812;11.762;2024-02-21T03:12:02;14.17;;;5.97;;
22160;SDS011;49035;48.812;11.762;2024-02-21T03:14:29;34.60;;;11.07;;
22160;SDS011;49035;48.812;11.762;2024-02-21T03:16:55;26.07;;;7.73;;
22160;SDS011;49035;48.812;11.762;2024-02-21T03:19:20;13.40;;;4.40;;
22160;SDS011;49035;48.812;11.762;2024-02-21T03:21:46;13.03;;;5.03;;
22160;SDS011;49035;48.812;11.762;2024-02-21T03:24:12;8.30;;;3.67;;
22160;SDS011;49035;48.812;11.762;2024-02-21T03:26:37;8.63;;;3.57;;
22160;SDS011;49035;48.812;11.762;2024-02-21T03:29:06;8.10;;;3.70;;
22160;SDS011;49035;48.812;11.762;2024-02-21T03:31:31;6.73;;;3.30;;
22160;SDS011;49035;48.812;11.762;2024-02-21T03:33:57;7.88;;;3.80;;
22160;SDS011;49035;48.812;11.762;2024-02-21T03:36:22;9.83;;;3.87;;
22160;SDS011;49035;48.812;11.762;2024-02-21T03:38:48;10.50;;;3.50;;
22160;SDS011;49035;48.812;11.762;2024-02-21T03:41:13;9.87;;;3.97;;
22160;SDS011;49035;48.812;11.762;2024-02-21T03:43:39;10.70;;;3.73;;
22160;SDS011;49035;48.812;11.762;2024-02-21T03:46:05;9.93;;;3.63;;
22160;SDS011;49035;48.812;11.762;2024-02-21T03:48:31;13.97;;;3.80;;
22160;SDS011;49035;48.812;11.762;2024-02-21T03:50:57;8.17;;;3.33;;
22160;SDS011;49035;48.812;11.762;2024-02-21T03:53:23;7.77;;;3.07;;
22160;SDS011;49035;48.812;11.762;2024-02-21T03:55:49;7.77;;;3.43;;
22160;SDS011;49035;48.812;11.762;2024-02-21T03:58:14;13.13;;;4.03;;
22160;SDS011;49035;48.812;11.762;2024-02-21T04:00:40;11.53;;;3.57;;
22160;SDS011;49035;48.812;11.762;2024-02-21T04:03:06;9.10;;;3.30;;
22160;SDS011;49035;48.812;11.762;2024-02-21T04:05:32;9.63;;;3.07;;
22160;SDS011;49035;48.812;11.762;2024-02-21T04:07:58;9.60;;;4.00;;
22160;SDS011;49035;48.812;11.762;2024-02-21T04:10:24;7.57;;;3.83;;
22160;SDS011;49035;48.812;11.762;2024-02-21T04:12:49;6.97;;;3.10;;
22160;SDS011;49035;48.812;11.762;2024-02-21T04:15:16;7.97;;;3.50;;
22160;SDS011;49035;48.812;11.762;2024-02-21T04:17:42;12.83;;;3.43;;
22160;SDS011;49035;48.812;11.762;2024-02-21T04:20:13;9.77;;;3.17;;
22160;SDS011;49035;48.812;11.762;2024-02-21T04:22:39;9.50;;;3.10;;
22160;SDS011;49035;48.812;11.762;2024-02-21T04:25:05;8.03;;;2.77;;
22160;SDS011;49035;48.812;11.762;2024-02-21T04:27:31;9.98;;;3.08;;
22160;SDS011;49035;48.812;11.762;2024-02-21T04:29:57;7.63;;;3.67;;
22160;SDS011;49035;48.812;11.762;2024-02-21T04:32:22;10.23;;;4.03;;
22160;SDS011;49035;48.812;11.762;2024-02-21T04:34:48;10.93;;;3.23;;
22160;SDS011;49035;48.812;11.762;2024-02-21T04:37:14;8.50;;;3.30;;
22160;SDS011;49035;48.812;11.762;2024-02-21T04:39:39;13.63;;;4.63;;
22160;SDS011;49035;48.812;11.762;2024-02-21T04:42:05;6.10;;;2.87;;
22160;SDS011;49035;48.812;11.762;2024-02-21T04:44:31;6.73;;;3.80;;
22160;SDS011;49035;48.812;11.762;2024-02-21T04:46:56;10.13;;;3.27;;
22160;SDS011;49035;48.812;11.762;2024-02-21T04:49:22;6.30;;;2.80;;
22160;SDS011;49035;48.812;11.762;2024-02-21T04:51:48;8.10;;;3.77;;
22160;SDS011;49035;48.812;11.762;2024-02-21T04:54:14;7.27;;;2.90;;
22160;SDS011;49035;48.812;11.762;2024-02-21T04:56:40;8.40;;;2.80;;
22160;SDS011;49035;48.812;11.762;2024-02-21T04:59:05;5.40;;;3.10;;
22160;SDS011;49035;48.812;11.762;2024-02-21T05:01:31;8.50;;;3.13;;
22160;SDS011;49035;48.812;11.762;2024-02-21T05:03:56;7.80;;;2.97;;
22160;SDS011;49035;48.812;11.762;2024-02-21T05:06:22;5.07;;;2.40;;
22160;SDS011;49035;48.812;11.762;2024-02-21T05:08:48;8.43;;;2.53;;
22160;SDS011;49035;48.812;11.762;2024-02-21T05:11:13;7.20;;;2.70;;
22160;SDS011;49035;48.812;11.762;2024-02-21T05:13:39;8.43;;;2.90;;
22160;SDS011;49035;48.812;11.762;2024-02-21T05:16:05;7.30;;;3.60;;
22160;SDS011;49035;48.812;11.762;2024-02-21T05:18:31;8.37;;;3.57;;
22160;SDS011;49035;48.812;11.762;2024-02-21T05:20:57;5.33;;;2.60;;
22160;SDS011;49035;48.812;11.762;2024-02-21T05:23:24;8.00;;;2.97;;
22160;SDS011;49035;48.812;11.762;2024-02-21T05:25:51;5.67;;;2.63;;
22160;SDS011;49035;48.812;11.762;2024-02-21T05:28:16;10.40;;;3.90;;
22160;SDS011;49035;48.812;11.762;2024-02-21T05:30:42;5.33;;;2.90;;
22160;SDS011;49035;48.812;11.762;2024-02-21T05:33:08;7.07;;;2.97;;
22160;SDS011;49035;48.812;11.762;2024-02-21T05:35:34;5.37;;;2.70;;
22160;SDS011;49035;48.812;11.762;2024-02-21T05:38:00;7.27;;;2.63;;
22160;SDS011;49035;48.812;11.762;2024-02-21T05:40:25;8.43;;;3.20;;
22160;SDS011;49035;48.812;11.762;2024-02-21T05:42:51;7.17;;;2.90;;
22160;SDS011;49035;48.812;11.762;2024-02-21T05:45:17;7.07;;;2.93;;
22160;SDS011;49035;48.812;11.762;2024-02-21T05:47:43;4.77;;;2.87;;
22160;SDS011;49035;48.812;11.762;2024-02-21T05:50:09;7.93;;;4.37;;
22160;SDS011;49035;48.812;11.762;2024-02-21T05:52:35;9.13;;;4.00;;
22160;SDS011;49035;48.812;11.762;2024-02-21T05:55:00;9.10;;;3.57;;
22160;SDS011;49035;48.812;11.762;2024-02-21T05:57:26;8.63;;;3.00;;
22160;SDS011;49035;48.812;11.762;2024-02-21T05:59:52;13.93;;;3.37;;
22160;SDS011;49035;48.812;11.762;2024-02-21T06:02:17;10.60;;;3.50;;
22160;SDS011;49035;48.812;11.762;2024-02-21T06:04:43;7.77;;;3.33;;
22160;SDS011;49035;48.812;11.762;2024-02-21T06:07:09;12.73;;;3.93;;
22160;SDS011;49035;48.812;11.762;2024-02-21T06:09:35;11.73;;;4.53;;
22160;SDS011;49035;48.812;11.762;2024-02-21T06:12:00;8.20;;;3.40;;
22160;SDS011;49035;48.812;11.762;2024-02-21T06:14:26;6.20;;;4.00;;
22160;SDS011;49035;48.812;11.762;2024-02-21T06:16:51;9.83;;;3.80;;
22160;SDS011;49035;48.812;11.762;2024-02-21T06:19:17;6.60;;;3.70;;
22160;SDS011;49035;48.812;11.762;2024-02-21T06:21:42;7.47;;;3.80;;
22160;SDS011;49035;48.812;11.762;2024-02-21T06:24:08;11.87;;;3.60;;
22160;SDS011;49035;48.812;11.762;2024-02-21T06:26:34;11.27;;;4.37;;
22160;SDS011;49035;48.812;11.762;2024-02-21T06:28:59;9.80;;;3.60;;
22160;SDS011;49035;48.812;11.762;2024-02-21T06:31:25;7.57;;;3.97;;
22160;SDS011;49035;48.812;11.762;2024-02-21T06:33:53;9.00;;;3.40;;
22160;SDS011;49035;48.812;11.762;2024-02-21T06:36:19;11.90;;;5.73;;
22160;SDS011;49035;48.812;11.762;2024-02-21T06:38:45;10.93;;;4.83;;
22160;SDS011;49035;48.812;11.762;2024-02-21T06:41:19;9.33;;;4.50;;
22160;SDS011;49035;48.812;11.762;2024-02-21T06:43:45;12.10;;;4.17;;
22160;SDS011;49035;48.812;11.762;2024-02-21T06:46:11;11.17;;;3.80;;
22160;SDS011;49035;48.812;11.762;2024-02-21T06:48:37;9.00;;;3.43;;
22160;SDS011;49035;48.812;11.762;2024-02-21T06:51:03;6.30;;;3.53;;
22160;SDS011;49035;48.812;11.762;2024-02-21T06:53:29;8.87;;;3.57;;
22160;SDS011;49035;48.812;11.762;2024-02-21T06:55:54;11.03;;;4.03;;
22160;SDS011;49035;48.812;11.762;2024-02-21T06:58:20;7.57;;;3.57;;
22160;SDS011;49035;48.812;11.762;2024-02-21T07:00:46;7.30;;;3.73;;
22160;SDS011;49035;48.812;11.762;2024-02-21T07:03:11;4.53;;;3.10;;
22160;SDS011;49035;48.812;11.762;2024-02-21T07:05:37;8.03;;;3.83;;
22160;SDS011;49035;48.812;11.762;2024-02-21T07:08:02;7.05;;;3.05;;
22160;SDS011;49035;48.812;11.762;2024-02-21T07:10:28;9.17;;;3.00;;
22160;SDS011;49035;48.812;11.762;2024-02-21T07:12:54;6.73;;;3.33;;
22160;SDS011;49035;48.812;11.762;2024-02-21T07:15:20;12.53;;;3.53;;
22160;SDS011;49035;48.812;11.762;2024-02-21T07:17:46;7.07;;;3.30;;
22160;SDS011;49035;48.812;11.762;2024-02-21T07:20:12;6.73;;;3.40;;
22160;SDS011;49035;48.812;11.762;2024-02-21T07:22:37;10.48;;;3.42;;
22160;SDS011;49035;48.812;11.762;2024-02-21T07:25:03;6.60;;;2.80;;
22160;SDS011;49035;48.812;11.762;2024-02-21T07:27:29;7.97;;;3.03;;
22160;SDS011;49035;48.812;11.762;2024-02-21T07:29:56;7.50;;;3.20;;
22160;SDS011;49035;48.812;11.762;2024-02-21T07:32:22;7.60;;;3.10;;
22160;SDS011;49035;48.812;11.762;2024-02-21T07:34:48;5.55;;;2.80;;
22160;SDS011;49035;48.812;11.762;2024-02-21T07:37:13;10.07;;;3.72;;
22160;SDS011;49035;48.812;11.762;2024-02-21T07:39:39;11.75;;;4.20;;
22160;SDS011;49035;48.812;11.762;2024-02-21T07:42:04;11.55;;;3.80;;
22160;SDS011;49035;48.812;11.762;2024-02-21T07:44:30;6.40;;;3.25;;
22160;SDS011;49035;48.812;11.762;2024-02-21T07:46:57;5.60;;;2.72;;
22160;SDS011;49035;48.812;11.762;2024-02-21T07:49:23;9.40;;;2.60;;
22160;SDS011;49035;48.812;11.762;2024-02-21T07:51:48;5.70;;;2.78;;
22160;SDS011;49035;48.812;11.762;2024-02-21T07:54:14;8.43;;;2.50;;
22160;SDS011;49035;48.812;11.762;2024-02-21T07:56:40;6.60;;;2.50;;
22160;SDS011;49035;48.812;11.762;2024-02-21T07:59:05;5.88;;;2.60;;
22160;SDS011;49035;48.812;11.762;2024-02-21T08:01:31;6.50;;;2.70;;
22160;SDS011;49035;48.812;11.762;2024-02-21T08:03:56;4.45;;;2.83;;
22160;SDS011;49035;48.812;11.762;2024-02-21T08:06:23;4.78;;;3.40;;
22160;SDS011;49035;48.812;11.762;2024-02-21T08:08:49;10.07;;;4.90;;
22160;SDS011;49035;48.812;11.762;2024-02-21T08:11:15;12.32;;;5.45;;
22160;SDS011;49035;48.812;11.762;2024-02-21T08:13:40;12.00;;;3.75;;
22160;SDS011;49035;48.812;11.762;2024-02-21T08:16:06;10.80;;;3.47;;
22160;SDS011;49035;48.812;11.762;2024-02-21T08:18:31;9.18;;;3.47;;
22160;SDS011;49035;48.812;11.762;2024-02-21T08:21:01;8.40;;;3.00;;
22160;SDS011;49035;48.812;11.762;2024-02-21T08:23:27;11.93;;;3.35;;
22160;SDS011;49035;48.812;11.762;2024-02-21T08:25:52;7.68;;;3.35;;
22160;SDS011;49035;48.812;11.762;2024-02-21T08:28:18;8.93;;;3.10;;
22160;SDS011;49035;48.812;11.762;2024-02-21T08:30:43;8.95;;;2.78;;
22160;SDS011;49035;48.812;11.762;2024-02-21T08:33:12;9.23;;;3.63;;
22160;SDS011;49035;48.812;11.762;2024-02-21T08:35:39;4.40;;;2.97;;
22160;SDS011;49035;48.812;11.762;2024-02-21T08:38:04;5.10;;;3.08;;
22160;SDS011;49035;48.812;11.762;2024-02-21T08:40:30;7.70;;;3.00;;
22160;SDS011;49035;48.812;11.762;2024-02-21T08:42:55;6.82;;;3.42;;
22160;SDS011;49035;48.812;11.762;2024-02-21T08:45:21;4.43;;;2.58;;
22160;SDS011;49035;48.812;11.762;2024-02-21T08:47:46;10.05;;;3.13;;
22160;SDS011;49035;48.812;11.762;2024-02-21T08:50:12;8.40;;;3.55;;
22160;SDS011;49035;48.812;11.762;2024-02-21T08:52:38;4.13;;;2.58;;
22160;SDS011;49035;48.812;11.762;2024-02-21T08:55:04;7.65;;;2.88;;
22160;SDS011;49035;48.812;11.762;2024-02-21T08:57:30;7.93;;;2.97;;
22160;SDS011;49035;48.812;11.762;2024-02-21T09:00:01;4.53;;;2.63;;
22160;SDS011;49035;48.812;11.762;2024-02-21T09:02:35;4.90;;;2.80;;
22160;SDS011;49035;48.812;11.762;2024-02-21T09:05:02;7.60;;;3.08;;
22160;SDS011;49035;48.812;11.762;2024-02-21T09:07:30;9.75;;;2.97;;
22160;SDS011;49035;48.812;11.762;2024-02-21T09:09:55;7.05;;;3.05;;
22160;SDS011;49035;48.812;11.762;2024-02-21T09:12:21;4.65;;;2.78;;
22160;SDS011;49035;48.812;11.762;2024-02-21T09:14:47;6.30;;;2.83;;
22160;SDS011;49035;48.812;11.762;2024-02-21T09:17:15;4.15;;;2.65;;
22160;SDS011;49035;48.812;11.762;2024-02-21T09:19:42;8.95;;;2.88;;
22160;SDS011;49035;48.812;11.762;2024-02-21T09:22:08;10.30;;;3.00;;
22160;SDS011;49035;48.812;11.762;2024-02-21T09:24:34;4.90;;;2.63;;
22160;SDS011;49035;48.812;11.762;2024-02-21T09:27:00;8.77;;;2.83;;
22160;SDS011;49035;48.812;11.762;2024-02-21T09:29:25;6.80;;;2.22;;
22160;SDS011;49035;48.812;11.762;2024-02-21T09:31:51;5.53;;;2.30;;
22160;SDS011;49035;48.812;11.762;2024-02-21T09:34:17;6.00;;;3.00;;
22160;SDS011;49035;48.812;11.762;2024-02-21T09:36:42;4.97;;;2.70;;
22160;SDS011;49035;48.812;11.762;2024-02-21T09:39:09;9.35;;;2.70;;
22160;SDS011;49035;48.812;11.762;2024-02-21T09:41:39;9.02;;;3.40;;
22160;SDS011;49035;48.812;11.762;2024-02-21T09:44:10;6.22;;;2.65;;
22160;SDS011;49035;48.812;11.762;2024-02-21T09:49:31;4.35;;;2.50;;
22160;SDS011;49035;48.812;11.762;2024-02-21T09:52:07;6.32;;;2.58;;
22160;SDS011;49035;48.812;11.762;2024-02-21T09:54:33;5.50;;;2.88;;
22160;SDS011;49035;48.812;11.762;2024-02-21T09:56:59;5.85;;;2.22;;
22160;SDS011;49035;48.812;11.762;2024-02-21T09:59:27;3.72;;;2.22;;
22160;SDS011;49035;48.812;11.762;2024-02-21T10:01:53;10.90;;;2.70;;
22160;SDS011;49035;48.812;11.762;2024-02-21T10:04:20;4.57;;;2.30;;
22160;SDS011;49035;48.812;11.762;2024-02-21T10:06:46;8.98;;;2.67;;
22160;SDS011;49035;48.812;11.762;2024-02-21T10:09:22;6.85;;;2.92;;
22160;SDS011;49035;48.812;11.762;2024-02-21T10:11:55;6.60;;;2.42;;
22160;SDS011;49035;48.812;11.762;2024-02-21T10:14:21;8.02;;;2.67;;
22160;SDS011;49035;48.812;11.762;2024-02-21T10:16:47;6.55;;;2.75;;
22160;SDS011;49035;48.812;11.762;2024-02-21T10:19:20;6.75;;;2.25;;
22160;SDS011;49035;48.812;11.762;2024-02-21T10:22:06;7.40;;;2.67;;
22160;SDS011;49035;48.812;11.762;2024-02-21T10:24:36;3.30;;;2.15;;
22160;SDS011;49035;48.812;11.762;2024-02-21T10:27:03;6.15;;;2.28;;
22160;SDS011;49035;48.812;11.762;2024-02-21T10:29:33;5.65;;;2.45;;
22160;SDS011;49035;48.812;11.762;2024-02-21T10:32:09;6.57;;;2.10;;
22160;SDS011;49035;48.812;11.762;2024-02-21T10:34:37;7.25;;;2.03;;
22160;SDS011;49035;48.812;11.762;2024-02-21T10:37:07;6.32;;;2.20;;
22160;SDS011;49035;48.812;11.762;2024-02-21T10:39:38;7.45;;;2.30;;
22160;SDS011;49035;48.812;11.762;2024-02-21T10:42:04;5.25;;;2.17;;
22160;SDS011;49035;48.812;11.762;2024-02-21T10:44:34;8.23;;;2.38;;
22160;SDS011;49035;48.812;11.762;2024-02-21T10:47:03;7.28;;;2.60;;
22160;SDS011;49035;48.812;11.762;2024-02-21T10:49:33;6.10;;;2.33;;
22160;SDS011;49035;48.812;11.762;2024-02-21T10:52:14;5.20;;;2.30;;
22160;SDS011;49035;48.812;11.762;2024-02-21T10:57:18;5.32;;;1.95;;
22160;SDS011;49035;48.812;11.762;2024-02-21T10:59:46;7.95;;;2.15;;
22160;SDS011;49035;48.812;11.762;2024-02-21T11:02:14;7.07;;;2.00;;
22160;SDS011;49035;48.812;11.762;2024-02-21T11:04:40;7.55;;;2.40;;
22160;SDS011;49035;48.812;11.762;2024-02-21T11:07:07;4.20;;;1.98;;
22160;SDS011;49035;48.812;11.762;2024-02-21T11:09:33;8.13;;;1.90;;
22160;SDS011;49035;48.812;11.762;2024-02-21T11:12:03;4.43;;;1.67;;
22160;SDS011;49035;48.812;11.762;2024-02-21T11:14:30;6.68;;;2.10;;
22160;SDS011;49035;48.812;11.762;2024-02-21T11:17:00;7.00;;;2.00;;
22160;SDS011;49035;48.812;11.762;2024-02-21T11:19:27;5.47;;;2.17;;
22160;SDS011;49035;48.812;11.762;2024-02-21T11:21:57;5.10;;;2.08;;
22160;SDS011;49035;48.812;11.762;2024-02-21T11:26:53;5.97;;;1.90;;
22160;SDS011;49035;48.812;11.762;2024-02-21T11:29:25;10.70;;;1.83;;
22160;SDS011;49035;48.812;11.762;2024-02-21T11:31:51;5.53;;;1.52;;
22160;SDS011;49035;48.812;11.762;2024-02-21T11:34:17;3.63;;;2.17;;
22160;SDS011;49035;48.812;11.762;2024-02-21T11:36:47;4.72;;;1.63;;
22160;SDS011;49035;48.812;11.762;2024-02-21T11:39:18;5.07;;;1.92;;
22160;SDS011;49035;48.812;11.762;2024-02-21T11:41:45;5.30;;;2.15;;
22160;SDS011;49035;48.812;11.762;2024-02-21T11:44:11;4.13;;;1.88;;
22160;SDS011;49035;48.812;11.762;2024-02-21T11:46:37;6.05;;;2.03;;
22160;SDS011;49035;48.812;11.762;2024-02-21T11:49:03;6.53;;;2.00;;
22160;SDS011;49035;48.812;11.762;2024-02-21T11:51:29;7.35;;;1.75;;
22160;SDS011;49035;48.812;11.762;2024-02-21T11:53:54;4.60;;;1.55;;
22160;SDS011;49035;48.812;11.762;2024-02-21T11:56:20;4.00;;;1.80;;
22160;SDS011;49035;48.812;11.762;2024-02-21T11:58:47;5.32;;;1.70;;
22160;SDS011;49035;48.812;11.762;2024-02-21T12:01:13;4.10;;;1.70;;
22160;SDS011;49035;48.812;11.762;2024-02-21T12:03:39;4.57;;;1.92;;
22160;SDS011;49035;48.812;11.762;2024-02-21T12:06:06;3.38;;;1.50;;
22160;SDS011;49035;48.812;11.762;2024-02-21T12:08:44;4.85;;;1.50;;
22160;SDS011;49035;48.812;11.762;2024-02-21T12:11:20;3.72;;;1.67;;
22160;SDS011;49035;48.812;11.762;2024-02-21T12:14:01;5.20;;;1.83;;
22160;SDS011;49035;48.812;11.762;2024-02-21T12:16:37;4.93;;;1.83;;
22160;SDS011;49035;48.812;11.762;2024-02-21T12:19:03;4.28;;;1.80;;
22160;SDS011;49035;48.812;11.762;2024-02-21T12:21:33;2.58;;;1.35;;
22160;SDS011;49035;48.812;11.762;2024-02-21T12:24:14;2.53;;;1.45;;
22160;SDS011;49035;48.812;11.762;2024-02-21T12:26:41;5.18;;;1.55;;
22160;SDS011;49035;48.812;11.762;2024-02-21T12:29:07;5.65;;;1.60;;
22160;SDS011;49035;48.812;11.762;2024-02-21T12:31:34;3.92;;;1.60;;
22160;SDS011;49035;48.812;11.762;2024-02-21T12:34:01;3.95;;;2.00;;
22160;SDS011;49035;48.812;11.762;2024-02-21T12:36:27;3.30;;;1.35;;
22160;SDS011;49035;48.812;11.762;2024-02-21T12:38:53;4.15;;;1.33;;
22160;SDS011;49035;48.812;11.762;2024-02-21T12:41:18;5.25;;;1.80;;
22160;SDS011;49035;48.812;11.762;2024-02-21T12:43:44;6.45;;;1.65;;
22160;SDS011;49035;48.812;11.762;2024-02-21T12:46:09;3.28;;;1.38;;
22160;SDS011;49035;48.812;11.762;2024-02-21T12:48:35;4.18;;;1.35;;
22160;SDS011;49035;48.812;11.762;2024-02-21T12:51:01;6.07;;;1.73;;
22160;SDS011;49035;48.812;11.762;2024-02-21T12:53:26;3.55;;;1.73;;
22160;SDS011;49035;48.812;11.762;2024-02-21T12:55:54;3.90;;;1.60;;
22160;SDS011;49035;48.812;11.762;2024-02-21T12:58:32;2.70;;;1.27;;
22160;SDS011;49035;48.812;11.762;2024-02-21T13:00:58;2.22;;;1.30;;
22160;SDS011;49035;48.812;11.762;2024-02-21T13:03:24;5.30;;;1.25;;
22160;SDS011;49035;48.812;11.762;2024-02-21T13:05:50;3.65;;;1.60;;
22160;SDS011;49035;48.812;11.762;2024-02-21T13:08:16;4.30;;;1.35;;
22160;SDS011;49035;48.812;11.762;2024-02-21T13:10:42;4.30;;;1.63;;
22160;SDS011;49035;48.812;11.762;2024-02-21T13:13:08;6.78;;;1.38;;
22160;SDS011;49035;48.812;11.762;2024-02-21T13:15:34;4.50;;;1.58;;
22160;SDS011;49035;48.812;11.762;2024-02-21T13:17:59;6.78;;;1.50;;
22160;SDS011;49035;48.812;11.762;2024-02-21T13:20:25;3.33;;;1.20;;
22160;SDS011;49035;48.812;11.762;2024-02-21T13:22:52;4.60;;;1.40;;
22160;SDS011;49035;48.812;11.762;2024-02-21T13:25:17;5.03;;;1.38;;
22160;SDS011;49035;48.812;11.762;2024-02-21T13:27:45;5.05;;;1.35;;
22160;SDS011;49035;48.812;11.762;2024-02-21T13:30:12;3.13;;;1.48;;
22160;SDS011;49035;48.812;11.762;2024-02-21T13:32:40;4.13;;;1.45;;
22160;SDS011;49035;48.812;11.762;2024-02-21T13:35:07;3.28;;;2.08;;
22160;SDS011;49035;48.812;11.762;2024-02-21T13:37:33;3.35;;;1.02;;
22160;SDS011;49035;48.812;11.762;2024-02-21T13:39:59;2.75;;;1.25;;
22160;SDS011;49035;48.812;11.762;2024-02-21T13:42:25;4.25;;;1.30;;
22160;SDS011;49035;48.812;11.762;2024-02-21T13:44:52;2.67;;;1.27;;
22160;SDS011;49035;48.812;11.762;2024-02-21T13:47:18;4.32;;;1.27;;
22160;SDS011;49035;48.812;11.762;2024-02-21T13:49:44;2.85;;;1.10;;
22160;SDS011;49035;48.812;11.762;2024-02-21T13:52:13;4.88;;;1.25;;
22160;SDS011;49035;48.812;11.762;2024-02-21T13:54:39;4.00;;;1.42;;
22160;SDS011;49035;48.812;11.762;2024-02-21T13:57:05;3.75;;;1.20;;
22160;SDS011;49035;48.812;11.762;2024-02-21T13:59:30;3.50;;;1.30;;
22160;SDS011;49035;48.812;11.762;2024-02-21T14:01:58;2.70;;;1.20;;
22160;SDS011;49035;48.812;11.762;2024-02-21T14:04:24;4.28;;;1.20;;
22160;SDS011;49035;48.812;11.762;2024-02-21T14:06:50;3.05;;;1.20;;
22160;SDS011;49035;48.812;11.762;2024-02-21T14:09:16;1.48;;;1.15;;
22160;SDS011;49035;48.812;11.762;2024-02-21T14:11:41;1.67;;;1.17;;
22160;SDS011;49035;48.812;11.762;2024-02-21T14:14:10;3.67;;;1.27;;
22160;SDS011;49035;48.812;11.762;2024-02-21T14:16:40;4.90;;;1.10;;
22160;SDS011;49035;48.812;11.762;2024-02-21T14:19:06;3.95;;;1.33;;
22160;SDS011;49035;48.812;11.762;2024-02-21T14:21:33;1.27;;;0.85;;
22160;SDS011;49035;48.812;11.762;2024-02-21T14:23:59;1.45;;;1.13;;
22160;SDS011;49035;48.812;11.762;2024-02-21T14:26:27;3.05;;;1.13;;
22160;SDS011;49035;48.812;11.762;2024-02-21T14:28:55;3.58;;;0.95;;
22160;SDS011;49035;48.812;11.762;2024-02-21T14:31:21;2.13;;;0.90;;
22160;SDS011;49035;48.812;11.762;2024-02-21T14:33:47;0.88;;;0.80;;
22160;SDS011;49035;48.812;11.762;2024-02-21T14:36:13;3.40;;;1.00;;